Mattamiscontis Township, Maine
Current Conditions -  °F | °C
As of 3:53 PM on Friday 19 Dec 2014 (Local Time) from KBGR Reporting Station
Few Clouds Few Clouds  
Wind Chill: 21°   Ceiling: Unl
Heat Index: 29°   Visibility: 10mi
Dew Point: 22°   Wind: 8mph
Humidity: 75%   Direction: 310°NW
Pressure: 29.94"   Gusts: NA
Location:  45.3335°N, 68.5089°W
Report Text: KBGR 192053Z 31007KT 10SM FEW030 FEW200 M02/M06 A2994 RMK AO2 SLP142 T10171056 51013
Loading
Personal Weather Stations






























Interactive Weather Map New forecast layout! Learn more

10-Day Weather Forecast

Advertisements
Track Severe Weather on mobile